sensor_id;sensor_type;location;lat;lon;timestamp;P1;durP1;ratioP1;P2;durP2;ratioP2
21901;SDS011;11115;46.038;14.612;2022-09-17T00:00:07;0.60;;;0.40;;
21901;SDS011;11115;46.038;14.612;2022-09-17T00:03:58;0.33;;;0.30;;
21901;SDS011;11115;46.038;14.612;2022-09-17T00:07:46;2.20;;;0.60;;
21901;SDS011;11115;46.038;14.612;2022-09-17T00:11:34;2.20;;;0.27;;
21901;SDS011;11115;46.038;14.612;2022-09-17T00:15:20;1.70;;;0.60;;
21901;SDS011;11115;46.038;14.612;2022-09-17T00:19:16;0.40;;;0.30;;
21901;SDS011;11115;46.038;14.612;2022-09-17T00:23:04;0.20;;;0.20;;
21901;SDS011;11115;46.038;14.612;2022-09-17T00:26:53;0.40;;;0.37;;
21901;SDS011;11115;46.038;14.612;2022-09-17T00:30:44;0.40;;;0.20;;
21901;SDS011;11115;46.038;14.612;2022-09-17T00:34:33;0.00;;;0.00;;
21901;SDS011;11115;46.038;14.612;2022-09-17T00:38:19;0.70;;;0.50;;
21901;SDS011;11115;46.038;14.612;2022-09-17T00:42:05;0.63;;;0.30;;
21901;SDS011;11115;46.038;14.612;2022-09-17T00:45:57;0.40;;;0.40;;
21901;SDS011;11115;46.038;14.612;2022-09-17T00:49:46;0.33;;;0.23;;
21901;SDS011;11115;46.038;14.612;2022-09-17T00:53:34;0.30;;;0.30;;
21901;SDS011;11115;46.038;14.612;2022-09-17T00:57:27;0.70;;;0.50;;
21901;SDS011;11115;46.038;14.612;2022-09-17T01:01:23;0.70;;;0.40;;
21901;SDS011;11115;46.038;14.612;2022-09-17T01:05:07;0.87;;;0.60;;
21901;SDS011;11115;46.038;14.612;2022-09-17T01:31:21;0.73;;;0.50;;
21901;SDS011;11115;46.038;14.612;2022-09-17T01:35:33;0.15;;;0.13;;
21901;SDS011;11115;46.038;14.612;2022-09-17T01:40:44;3.90;;;0.30;;
21901;SDS011;11115;46.038;14.612;2022-09-17T01:44:20;0.23;;;0.23;;
21901;SDS011;11115;46.038;14.612;2022-09-17T01:48:35;0.73;;;0.40;;
21901;SDS011;11115;46.038;14.612;2022-09-17T01:52:25;0.13;;;0.13;;
21901;SDS011;11115;46.038;14.612;2022-09-17T01:56:31;0.10;;;0.10;;
21901;SDS011;11115;46.038;14.612;2022-09-17T02:00:34;1.30;;;0.73;;
21901;SDS011;11115;46.038;14.612;2022-09-17T02:04:27;0.20;;;0.20;;
21901;SDS011;11115;46.038;14.612;2022-09-17T02:08:25;0.20;;;0.20;;
21901;SDS011;11115;46.038;14.612;2022-09-17T02:12:17;0.10;;;0.10;;
21901;SDS011;11115;46.038;14.612;2022-09-17T02:16:13;1.43;;;0.20;;
21901;SDS011;11115;46.038;14.612;2022-09-17T02:20:23;1.03;;;0.30;;
21901;SDS011;11115;46.038;14.612;2022-09-17T02:24:36;0.27;;;0.17;;
21901;SDS011;11115;46.038;14.612;2022-09-17T02:28:54;0.30;;;0.30;;
21901;SDS011;11115;46.038;14.612;2022-09-17T02:32:43;0.30;;;0.30;;
21901;SDS011;11115;46.038;14.612;2022-09-17T02:36:35;0.33;;;0.33;;
21901;SDS011;11115;46.038;14.612;2022-09-17T02:40:23;0.10;;;0.10;;
21901;SDS011;11115;46.038;14.612;2022-09-17T02:44:20;0.30;;;0.30;;
21901;SDS011;11115;46.038;14.612;2022-09-17T02:56:45;0.27;;;0.27;;
21901;SDS011;11115;46.038;14.612;2022-09-17T03:00:54;0.20;;;0.20;;
21901;SDS011;11115;46.038;14.612;2022-09-17T03:04:59;0.03;;;0.00;;
21901;SDS011;11115;46.038;14.612;2022-09-17T03:08:58;0.30;;;0.20;;
21901;SDS011;11115;46.038;14.612;2022-09-17T03:12:47;0.07;;;0.07;;
21901;SDS011;11115;46.038;14.612;2022-09-17T03:16:38;1.17;;;0.30;;
21901;SDS011;11115;46.038;14.612;2022-09-17T03:20:28;0.30;;;0.30;;
21901;SDS011;11115;46.038;14.612;2022-09-17T03:24:17;0.33;;;0.27;;
21901;SDS011;11115;46.038;14.612;2022-09-17T03:28:04;0.47;;;0.40;;
21901;SDS011;11115;46.038;14.612;2022-09-17T03:31:53;0.20;;;0.20;;
21901;SDS011;11115;46.038;14.612;2022-09-17T03:35:44;0.33;;;0.33;;
21901;SDS011;11115;46.038;14.612;2022-09-17T03:39:29;0.20;;;0.20;;
21901;SDS011;11115;46.038;14.612;2022-09-17T03:43:17;0.47;;;0.40;;
21901;SDS011;11115;46.038;14.612;2022-09-17T03:47:14;1.73;;;0.33;;
21901;SDS011;11115;46.038;14.612;2022-09-17T03:51:04;0.10;;;0.10;;
21901;SDS011;11115;46.038;14.612;2022-09-17T03:54:53;0.20;;;0.20;;
21901;SDS011;11115;46.038;14.612;2022-09-17T03:58:51;0.87;;;0.30;;
21901;SDS011;11115;46.038;14.612;2022-09-17T04:02:39;0.60;;;0.30;;
21901;SDS011;11115;46.038;14.612;2022-09-17T04:06:26;0.40;;;0.40;;
21901;SDS011;11115;46.038;14.612;2022-09-17T04:10:15;0.63;;;0.40;;
21901;SDS011;11115;46.038;14.612;2022-09-17T04:14:04;0.40;;;0.40;;
21901;SDS011;11115;46.038;14.612;2022-09-17T04:17:56;0.10;;;0.10;;
21901;SDS011;11115;46.038;14.612;2022-09-17T04:21:45;0.30;;;0.30;;
21901;SDS011;11115;46.038;14.612;2022-09-17T04:25:39;0.00;;;0.00;;
21901;SDS011;11115;46.038;14.612;2022-09-17T04:29:26;0.27;;;0.27;;
21901;SDS011;11115;46.038;14.612;2022-09-17T04:33:13;0.37;;;0.37;;
21901;SDS011;11115;46.038;14.612;2022-09-17T04:37:01;0.30;;;0.30;;
21901;SDS011;11115;46.038;14.612;2022-09-17T04:40:47;0.57;;;0.50;;
21901;SDS011;11115;46.038;14.612;2022-09-17T04:44:36;0.30;;;0.30;;
21901;SDS011;11115;46.038;14.612;2022-09-17T04:48:22;0.50;;;0.37;;
21901;SDS011;11115;46.038;14.612;2022-09-17T04:52:12;0.33;;;0.33;;
21901;SDS011;11115;46.038;14.612;2022-09-17T04:55:59;1.23;;;0.20;;
21901;SDS011;11115;46.038;14.612;2022-09-17T04:59:44;1.07;;;0.40;;
21901;SDS011;11115;46.038;14.612;2022-09-17T05:03:33;0.23;;;0.23;;
21901;SDS011;11115;46.038;14.612;2022-09-17T05:07:21;0.30;;;0.30;;
21901;SDS011;11115;46.038;14.612;2022-09-17T05:11:12;1.17;;;0.27;;
21901;SDS011;11115;46.038;14.612;2022-09-17T05:15:12;0.50;;;0.30;;
21901;SDS011;11115;46.038;14.612;2022-09-17T05:18:59;0.20;;;0.20;;
21901;SDS011;11115;46.038;14.612;2022-09-17T05:22:49;0.20;;;0.20;;
21901;SDS011;11115;46.038;14.612;2022-09-17T05:25:45;0.03;;;0.03;;
21901;SDS011;11115;46.038;14.612;2022-09-17T05:29:40;0.30;;;0.30;;
21901;SDS011;11115;46.038;14.612;2022-09-17T05:33:27;0.23;;;0.23;;
21901;SDS011;11115;46.038;14.612;2022-09-17T05:37:13;0.50;;;0.40;;
21901;SDS011;11115;46.038;14.612;2022-09-17T05:41:05;0.50;;;0.40;;
21901;SDS011;11115;46.038;14.612;2022-09-17T05:45:12;0.50;;;0.50;;
21901;SDS011;11115;46.038;14.612;2022-09-17T05:48:58;0.30;;;0.27;;
21901;SDS011;11115;46.038;14.612;2022-09-17T05:52:48;0.40;;;0.40;;
21901;SDS011;11115;46.038;14.612;2022-09-17T05:56:34;0.70;;;0.50;;
21901;SDS011;11115;46.038;14.612;2022-09-17T06:00:24;0.40;;;0.40;;
21901;SDS011;11115;46.038;14.612;2022-09-17T06:04:13;0.50;;;0.50;;
21901;SDS011;11115;46.038;14.612;2022-09-17T06:08:01;0.43;;;0.43;;
21901;SDS011;11115;46.038;14.612;2022-09-17T06:11:49;0.50;;;0.47;;
21901;SDS011;11115;46.038;14.612;2022-09-17T06:15:53;0.33;;;0.20;;
21901;SDS011;11115;46.038;14.612;2022-09-17T06:19:52;0.27;;;0.20;;
21901;SDS011;11115;46.038;14.612;2022-09-17T06:23:49;1.00;;;0.17;;
21901;SDS011;11115;46.038;14.612;2022-09-17T06:27:38;1.03;;;0.70;;
21901;SDS011;11115;46.038;14.612;2022-09-17T06:31:27;2.03;;;0.60;;
21901;SDS011;11115;46.038;14.612;2022-09-17T06:35:16;0.20;;;0.20;;
21901;SDS011;11115;46.038;14.612;2022-09-17T06:39:02;0.30;;;0.30;;
21901;SDS011;11115;46.038;14.612;2022-09-17T06:42:55;0.37;;;0.10;;
21901;SDS011;11115;46.038;14.612;2022-09-17T06:46:42;1.07;;;0.57;;
21901;SDS011;11115;46.038;14.612;2022-09-17T06:50:28;0.83;;;0.40;;
21901;SDS011;11115;46.038;14.612;2022-09-17T06:54:14;0.53;;;0.50;;
21901;SDS011;11115;46.038;14.612;2022-09-17T06:58:02;0.83;;;0.33;;
21901;SDS011;11115;46.038;14.612;2022-09-17T07:01:52;0.43;;;0.43;;
21901;SDS011;11115;46.038;14.612;2022-09-17T07:05:57;0.67;;;0.47;;
21901;SDS011;11115;46.038;14.612;2022-09-17T07:09:44;1.40;;;0.57;;
21901;SDS011;11115;46.038;14.612;2022-09-17T07:13:30;2.80;;;0.50;;
21901;SDS011;11115;46.038;14.612;2022-09-17T07:17:18;0.30;;;0.20;;
21901;SDS011;11115;46.038;14.612;2022-09-17T07:21:05;0.63;;;0.40;;
21901;SDS011;11115;46.038;14.612;2022-09-17T07:24:52;0.40;;;0.27;;
21901;SDS011;11115;46.038;14.612;2022-09-17T07:28:40;0.40;;;0.37;;
21901;SDS011;11115;46.038;14.612;2022-09-17T07:32:29;2.20;;;0.53;;
21901;SDS011;11115;46.038;14.612;2022-09-17T07:36:16;0.20;;;0.20;;
21901;SDS011;11115;46.038;14.612;2022-09-17T07:40:07;0.47;;;0.30;;
21901;SDS011;11115;46.038;14.612;2022-09-17T07:43:59;0.33;;;0.33;;
21901;SDS011;11115;46.038;14.612;2022-09-17T07:47:48;0.20;;;0.20;;
21901;SDS011;11115;46.038;14.612;2022-09-17T07:51:35;0.53;;;0.50;;
21901;SDS011;11115;46.038;14.612;2022-09-17T07:55:23;0.10;;;0.10;;
21901;SDS011;11115;46.038;14.612;2022-09-17T07:59:19;0.60;;;0.40;;
21901;SDS011;11115;46.038;14.612;2022-09-17T08:03:08;2.50;;;0.40;;
21901;SDS011;11115;46.038;14.612;2022-09-17T08:06:56;3.00;;;0.47;;
21901;SDS011;11115;46.038;14.612;2022-09-17T08:10:44;3.50;;;0.60;;
21901;SDS011;11115;46.038;14.612;2022-09-17T08:14:30;0.20;;;0.20;;
21901;SDS011;11115;46.038;14.612;2022-09-17T08:18:19;0.63;;;0.60;;
21901;SDS011;11115;46.038;14.612;2022-09-17T08:22:07;2.80;;;0.60;;
21901;SDS011;11115;46.038;14.612;2022-09-17T08:25:57;0.33;;;0.33;;
21901;SDS011;11115;46.038;14.612;2022-09-17T08:29:44;1.70;;;0.63;;
21901;SDS011;11115;46.038;14.612;2022-09-17T08:33:32;1.47;;;0.73;;
21901;SDS011;11115;46.038;14.612;2022-09-17T08:37:28;0.33;;;0.30;;
21901;SDS011;11115;46.038;14.612;2022-09-17T08:41:35;1.93;;;0.40;;
21901;SDS011;11115;46.038;14.612;2022-09-17T08:45:39;1.20;;;0.53;;
21901;SDS011;11115;46.038;14.612;2022-09-17T08:49:52;0.30;;;0.30;;
21901;SDS011;11115;46.038;14.612;2022-09-17T08:54:21;0.93;;;0.87;;
21901;SDS011;11115;46.038;14.612;2022-09-17T09:06:35;0.20;;;0.20;;
21901;SDS011;11115;46.038;14.612;2022-09-17T09:10:51;0.60;;;0.60;;
21901;SDS011;11115;46.038;14.612;2022-09-17T09:14:50;0.43;;;0.43;;
21901;SDS011;11115;46.038;14.612;2022-09-17T09:18:45;0.30;;;0.20;;
21901;SDS011;11115;46.038;14.612;2022-09-17T09:22:51;1.10;;;1.03;;
21901;SDS011;11115;46.038;14.612;2022-09-17T09:26:42;0.90;;;0.67;;
21901;SDS011;11115;46.038;14.612;2022-09-17T09:34:44;0.60;;;0.33;;
21901;SDS011;11115;46.038;14.612;2022-09-17T09:38:37;0.40;;;0.33;;
21901;SDS011;11115;46.038;14.612;2022-09-17T09:43:02;0.27;;;0.27;;
21901;SDS011;11115;46.038;14.612;2022-09-17T10:04:30;0.10;;;0.10;;
21901;SDS011;11115;46.038;14.612;2022-09-17T10:08:21;1.30;;;0.60;;
21901;SDS011;11115;46.038;14.612;2022-09-17T10:20:15;0.10;;;0.10;;
21901;SDS011;11115;46.038;14.612;2022-09-17T10:24:27;0.77;;;0.50;;
21901;SDS011;11115;46.038;14.612;2022-09-17T10:28:40;0.30;;;0.27;;
21901;SDS011;11115;46.038;14.612;2022-09-17T10:32:32;0.30;;;0.30;;
21901;SDS011;11115;46.038;14.612;2022-09-17T10:36:33;0.30;;;0.30;;
21901;SDS011;11115;46.038;14.612;2022-09-17T10:40:38;0.57;;;0.40;;
21901;SDS011;11115;46.038;14.612;2022-09-17T10:44:52;0.20;;;0.20;;
21901;SDS011;11115;46.038;14.612;2022-09-17T10:48:56;0.30;;;0.30;;
21901;SDS011;11115;46.038;14.612;2022-09-17T10:52:49;1.37;;;0.87;;
21901;SDS011;11115;46.038;14.612;2022-09-17T10:57:01;0.30;;;0.30;;
21901;SDS011;11115;46.038;14.612;2022-09-17T11:22:16;0.73;;;0.73;;
21901;SDS011;11115;46.038;14.612;2022-09-17T11:26:38;1.37;;;0.70;;
21901;SDS011;11115;46.038;14.612;2022-09-17T11:35:12;0.83;;;0.77;;
21901;SDS011;11115;46.038;14.612;2022-09-17T11:39:13;1.33;;;1.07;;
21901;SDS011;11115;46.038;14.612;2022-09-17T11:43:13;1.60;;;1.50;;
21901;SDS011;11115;46.038;14.612;2022-09-17T11:47:14;1.00;;;0.83;;
21901;SDS011;11115;46.038;14.612;2022-09-17T11:51:20;1.40;;;0.93;;
21901;SDS011;11115;46.038;14.612;2022-09-17T11:55:27;0.77;;;0.77;;
21901;SDS011;11115;46.038;14.612;2022-09-17T11:59:29;2.53;;;1.10;;
21901;SDS011;11115;46.038;14.612;2022-09-17T12:03:43;1.23;;;0.97;;
21901;SDS011;11115;46.038;14.612;2022-09-17T12:12:05;0.93;;;0.70;;
21901;SDS011;11115;46.038;14.612;2022-09-17T12:20:30;1.27;;;0.77;;
21901;SDS011;11115;46.038;14.612;2022-09-17T12:24:22;2.88;;;1.15;;
21901;SDS011;11115;46.038;14.612;2022-09-17T12:28:55;3.43;;;1.40;;
21901;SDS011;11115;46.038;14.612;2022-09-17T12:45:54;1.80;;;1.40;;
21901;SDS011;11115;46.038;14.612;2022-09-17T12:50:06;2.30;;;0.93;;
21901;SDS011;11115;46.038;14.612;2022-09-17T13:16:08;3.23;;;0.70;;
21901;SDS011;11115;46.038;14.612;2022-09-17T13:24:17;0.27;;;0.27;;
21901;SDS011;11115;46.038;14.612;2022-09-17T13:32:49;0.43;;;0.40;;
21901;SDS011;11115;46.038;14.612;2022-09-17T13:36:51;0.30;;;0.30;;
21901;SDS011;11115;46.038;14.612;2022-09-17T13:40:44;0.80;;;0.53;;
21901;SDS011;11115;46.038;14.612;2022-09-17T13:44:36;0.50;;;0.50;;
21901;SDS011;11115;46.038;14.612;2022-09-17T13:48:54;1.07;;;0.77;;
21901;SDS011;11115;46.038;14.612;2022-09-17T13:52:57;1.27;;;1.00;;
21901;SDS011;11115;46.038;14.612;2022-09-17T13:56:50;0.80;;;0.80;;
21901;SDS011;11115;46.038;14.612;2022-09-17T14:01:14;1.53;;;0.77;;
21901;SDS011;11115;46.038;14.612;2022-09-17T14:05:31;0.87;;;0.80;;
21901;SDS011;11115;46.038;14.612;2022-09-17T14:09:33;1.10;;;0.57;;
21901;SDS011;11115;46.038;14.612;2022-09-17T14:13:39;3.73;;;1.30;;
21901;SDS011;11115;46.038;14.612;2022-09-17T14:17:49;0.40;;;0.40;;
21901;SDS011;11115;46.038;14.612;2022-09-17T14:21:57;2.27;;;0.93;;
21901;SDS011;11115;46.038;14.612;2022-09-17T14:25:51;0.80;;;0.40;;
21901;SDS011;11115;46.038;14.612;2022-09-17T14:30:38;0.63;;;0.63;;
21901;SDS011;11115;46.038;14.612;2022-09-17T14:34:10;1.10;;;1.00;;
21901;SDS011;11115;46.038;14.612;2022-09-17T14:38:13;0.65;;;0.63;;
21901;SDS011;11115;46.038;14.612;2022-09-17T14:42:16;2.23;;;1.00;;
21901;SDS011;11115;46.038;14.612;2022-09-17T14:46:27;1.77;;;1.13;;
21901;SDS011;11115;46.038;14.612;2022-09-17T14:50:23;0.73;;;0.73;;
21901;SDS011;11115;46.038;14.612;2022-09-17T14:54:18;1.67;;;0.90;;
21901;SDS011;11115;46.038;14.612;2022-09-17T14:58:33;2.30;;;0.80;;
21901;SDS011;11115;46.038;14.612;2022-09-17T15:02:48;1.50;;;0.97;;
21901;SDS011;11115;46.038;14.612;2022-09-17T15:06:34;1.43;;;0.73;;
21901;SDS011;11115;46.038;14.612;2022-09-17T15:10:21;0.93;;;0.57;;
21901;SDS011;11115;46.038;14.612;2022-09-17T15:14:12;1.40;;;0.60;;
21901;SDS011;11115;46.038;14.612;2022-09-17T15:18:05;0.50;;;0.50;;
21901;SDS011;11115;46.038;14.612;2022-09-17T15:21:53;0.43;;;0.43;;
21901;SDS011;11115;46.038;14.612;2022-09-17T15:25:59;1.07;;;0.73;;
21901;SDS011;11115;46.038;14.612;2022-09-17T15:29:50;0.60;;;0.53;;
21901;SDS011;11115;46.038;14.612;2022-09-17T15:33:40;1.67;;;0.53;;
21901;SDS011;11115;46.038;14.612;2022-09-17T15:37:27;1.07;;;0.90;;
21901;SDS011;11115;46.038;14.612;2022-09-17T15:45:20;2.13;;;0.90;;
21901;SDS011;11115;46.038;14.612;2022-09-17T15:49:30;0.83;;;0.60;;
21901;SDS011;11115;46.038;14.612;2022-09-17T15:53:37;1.20;;;0.70;;
21901;SDS011;11115;46.038;14.612;2022-09-17T15:57:28;1.53;;;0.57;;
21901;SDS011;11115;46.038;14.612;2022-09-17T16:05:44;0.50;;;0.40;;
21901;SDS011;11115;46.038;14.612;2022-09-17T16:09:51;0.57;;;0.30;;
21901;SDS011;11115;46.038;14.612;2022-09-17T16:13:38;0.50;;;0.50;;
21901;SDS011;11115;46.038;14.612;2022-09-17T16:17:46;2.13;;;1.30;;
21901;SDS011;11115;46.038;14.612;2022-09-17T16:21:34;1.45;;;0.50;;
21901;SDS011;11115;46.038;14.612;2022-09-17T16:25:25;0.30;;;0.30;;
21901;SDS011;11115;46.038;14.612;2022-09-17T16:29:19;0.50;;;0.43;;
21901;SDS011;11115;46.038;14.612;2022-09-17T16:33:16;1.27;;;0.40;;
21901;SDS011;11115;46.038;14.612;2022-09-17T16:37:01;0.50;;;0.40;;
21901;SDS011;11115;46.038;14.612;2022-09-17T16:41:03;1.40;;;0.37;;
21901;SDS011;11115;46.038;14.612;2022-09-17T16:44:53;0.52;;;0.30;;
21901;SDS011;11115;46.038;14.612;2022-09-17T16:48:49;1.00;;;0.67;;
21901;SDS011;11115;46.038;14.612;2022-09-17T16:52:35;0.23;;;0.13;;
21901;SDS011;11115;46.038;14.612;2022-09-17T16:56:24;0.13;;;0.13;;
21901;SDS011;11115;46.038;14.612;2022-09-17T17:00:12;0.70;;;0.23;;
21901;SDS011;11115;46.038;14.612;2022-09-17T17:04:08;0.60;;;0.40;;
21901;SDS011;11115;46.038;14.612;2022-09-17T17:07:56;1.57;;;0.47;;
21901;SDS011;11115;46.038;14.612;2022-09-17T17:11:46;1.03;;;0.47;;
21901;SDS011;11115;46.038;14.612;2022-09-17T17:15:34;0.20;;;0.20;;
21901;SDS011;11115;46.038;14.612;2022-09-17T17:19:26;2.43;;;0.30;;
21901;SDS011;11115;46.038;14.612;2022-09-17T17:23:12;0.50;;;0.40;;
21901;SDS011;11115;46.038;14.612;2022-09-17T17:27:00;2.33;;;0.77;;
21901;SDS011;11115;46.038;14.612;2022-09-17T17:30:50;1.63;;;1.33;;
21901;SDS011;11115;46.038;14.612;2022-09-17T17:34:40;3.43;;;1.20;;
21901;SDS011;11115;46.038;14.612;2022-09-17T17:38:26;8.70;;;1.33;;
21901;SDS011;11115;46.038;14.612;2022-09-17T17:42:14;3.60;;;1.83;;
21901;SDS011;11115;46.038;14.612;2022-09-17T17:46:04;5.73;;;1.37;;
21901;SDS011;11115;46.038;14.612;2022-09-17T17:49:51;1.93;;;0.97;;
21901;SDS011;11115;46.038;14.612;2022-09-17T17:53:40;4.00;;;1.47;;
21901;SDS011;11115;46.038;14.612;2022-09-17T17:57:25;0.33;;;0.30;;
21901;SDS011;11115;46.038;14.612;2022-09-17T18:01:12;0.50;;;0.50;;
21901;SDS011;11115;46.038;14.612;2022-09-17T18:05:00;2.17;;;0.77;;
21901;SDS011;11115;46.038;14.612;2022-09-17T18:08:49;2.40;;;1.07;;
21901;SDS011;11115;46.038;14.612;2022-09-17T18:12:38;1.13;;;1.00;;
21901;SDS011;11115;46.038;14.612;2022-09-17T18:16:26;2.20;;;1.23;;
21901;SDS011;11115;46.038;14.612;2022-09-17T18:20:24;1.10;;;0.80;;
21901;SDS011;11115;46.038;14.612;2022-09-17T18:24:11;1.47;;;0.93;;
21901;SDS011;11115;46.038;14.612;2022-09-17T18:27:58;6.53;;;0.97;;
21901;SDS011;11115;46.038;14.612;2022-09-17T18:31:47;3.23;;;1.07;;
21901;SDS011;11115;46.038;14.612;2022-09-17T18:35:34;0.50;;;0.50;;
21901;SDS011;11115;46.038;14.612;2022-09-17T18:39:24;6.53;;;1.40;;
21901;SDS011;11115;46.038;14.612;2022-09-17T18:43:23;2.63;;;1.20;;
21901;SDS011;11115;46.038;14.612;2022-09-17T18:47:09;1.83;;;1.10;;
21901;SDS011;11115;46.038;14.612;2022-09-17T18:51:03;5.30;;;0.67;;
21901;SDS011;11115;46.038;14.612;2022-09-17T18:54:52;2.43;;;1.10;;
21901;SDS011;11115;46.038;14.612;2022-09-17T18:58:46;2.60;;;1.30;;
21901;SDS011;11115;46.038;14.612;2022-09-17T19:02:55;0.95;;;0.85;;
21901;SDS011;11115;46.038;14.612;2022-09-17T19:06:45;2.33;;;1.10;;
21901;SDS011;11115;46.038;14.612;2022-09-17T19:10:32;4.80;;;2.07;;
21901;SDS011;11115;46.038;14.612;2022-09-17T19:14:28;2.10;;;1.10;;
21901;SDS011;11115;46.038;14.612;2022-09-17T19:18:25;2.30;;;1.03;;
21901;SDS011;11115;46.038;14.612;2022-09-17T19:22:13;2.67;;;1.03;;
21901;SDS011;11115;46.038;14.612;2022-09-17T19:26:09;2.80;;;1.10;;
21901;SDS011;11115;46.038;14.612;2022-09-17T19:29:58;1.50;;;0.97;;
21901;SDS011;11115;46.038;14.612;2022-09-17T19:33:50;3.00;;;0.40;;
21901;SDS011;11115;46.038;14.612;2022-09-17T19:37:48;1.00;;;1.00;;
21901;SDS011;11115;46.038;14.612;2022-09-17T19:41:42;3.00;;;1.83;;
21901;SDS011;11115;46.038;14.612;2022-09-17T19:45:29;0.37;;;0.37;;
21901;SDS011;11115;46.038;14.612;2022-09-17T19:49:28;2.13;;;0.93;;
21901;SDS011;11115;46.038;14.612;2022-09-17T19:53:17;1.27;;;0.67;;
21901;SDS011;11115;46.038;14.612;2022-09-17T19:57:15;0.77;;;0.50;;
21901;SDS011;11115;46.038;14.612;2022-09-17T20:01:05;0.87;;;0.70;;
21901;SDS011;11115;46.038;14.612;2022-09-17T20:04:53;1.53;;;0.87;;
21901;SDS011;11115;46.038;14.612;2022-09-17T20:12:34;1.03;;;0.80;;
21901;SDS011;11115;46.038;14.612;2022-09-17T20:16:23;0.97;;;0.80;;
21901;SDS011;11115;46.038;14.612;2022-09-17T20:20:12;1.37;;;0.77;;
21901;SDS011;11115;46.038;14.612;2022-09-17T20:24:03;1.20;;;0.70;;
21901;SDS011;11115;46.038;14.612;2022-09-17T20:27:49;3.30;;;0.70;;
21901;SDS011;11115;46.038;14.612;2022-09-17T20:31:36;0.60;;;0.50;;
21901;SDS011;11115;46.038;14.612;2022-09-17T20:35:34;4.70;;;0.70;;
21901;SDS011;11115;46.038;14.612;2022-09-17T20:39:23;0.57;;;0.53;;
21901;SDS011;11115;46.038;14.612;2022-09-17T20:43:11;0.67;;;0.60;;
21901;SDS011;11115;46.038;14.612;2022-09-17T20:47:01;2.13;;;0.43;;
21901;SDS011;11115;46.038;14.612;2022-09-17T20:50:54;1.83;;;0.70;;
21901;SDS011;11115;46.038;14.612;2022-09-17T20:54:41;2.27;;;1.27;;
21901;SDS011;11115;46.038;14.612;2022-09-17T20:58:30;1.73;;;0.87;;
21901;SDS011;11115;46.038;14.612;2022-09-17T21:02:35;2.30;;;1.20;;
21901;SDS011;11115;46.038;14.612;2022-09-17T21:06:22;1.30;;;1.07;;
21901;SDS011;11115;46.038;14.612;2022-09-17T21:10:10;3.93;;;0.77;;
21901;SDS011;11115;46.038;14.612;2022-09-17T21:14:05;2.70;;;1.40;;
21901;SDS011;11115;46.038;14.612;2022-09-17T21:17:51;1.17;;;0.87;;
21901;SDS011;11115;46.038;14.612;2022-09-17T21:21:40;0.67;;;0.60;;
21901;SDS011;11115;46.038;14.612;2022-09-17T21:29:22;1.07;;;0.67;;
21901;SDS011;11115;46.038;14.612;2022-09-17T21:33:10;0.63;;;0.50;;
21901;SDS011;11115;46.038;14.612;2022-09-17T21:37:05;0.97;;;0.80;;
21901;SDS011;11115;46.038;14.612;2022-09-17T21:40:53;0.80;;;0.80;;
21901;SDS011;11115;46.038;14.612;2022-09-17T21:44:40;4.70;;;0.63;;
21901;SDS011;11115;46.038;14.612;2022-09-17T21:48:36;1.70;;;0.90;;
21901;SDS011;11115;46.038;14.612;2022-09-17T21:52:27;1.97;;;1.20;;
21901;SDS011;11115;46.038;14.612;2022-09-17T21:56:14;1.20;;;1.10;;
21901;SDS011;11115;46.038;14.612;2022-09-17T22:00:00;1.23;;;0.80;;
21901;SDS011;11115;46.038;14.612;2022-09-17T22:03:58;1.33;;;0.90;;
21901;SDS011;11115;46.038;14.612;2022-09-17T22:07:43;1.33;;;0.93;;
21901;SDS011;11115;46.038;14.612;2022-09-17T22:11:33;1.90;;;0.90;;
21901;SDS011;11115;46.038;14.612;2022-09-17T22:15:21;0.97;;;0.70;;
21901;SDS011;11115;46.038;14.612;2022-09-17T22:19:13;1.93;;;0.97;;
21901;SDS011;11115;46.038;14.612;2022-09-17T22:23:11;2.90;;;1.27;;
21901;SDS011;11115;46.038;14.612;2022-09-17T22:26:56;2.37;;;1.40;;
21901;SDS011;11115;46.038;14.612;2022-09-17T22:30:45;1.50;;;0.93;;
21901;SDS011;11115;46.038;14.612;2022-09-17T22:34:30;0.77;;;0.77;;
21901;SDS011;11115;46.038;14.612;2022-09-17T22:38:20;1.30;;;1.20;;
21901;SDS011;11115;46.038;14.612;2022-09-17T22:42:06;1.03;;;0.70;;
21901;SDS011;11115;46.038;14.612;2022-09-17T22:45:51;1.40;;;1.30;;
21901;SDS011;11115;46.038;14.612;2022-09-17T22:49:39;2.90;;;1.23;;
21901;SDS011;11115;46.038;14.612;2022-09-17T22:53:27;1.30;;;1.13;;
21901;SDS011;11115;46.038;14.612;2022-09-17T22:57:15;3.53;;;2.37;;
21901;SDS011;11115;46.038;14.612;2022-09-17T23:01:06;3.97;;;2.13;;
21901;SDS011;11115;46.038;14.612;2022-09-17T23:04:52;6.10;;;2.80;;
21901;SDS011;11115;46.038;14.612;2022-09-17T23:08:44;4.07;;;2.17;;
21901;SDS011;11115;46.038;14.612;2022-09-17T23:12:33;5.13;;;1.77;;
21901;SDS011;11115;46.038;14.612;2022-09-17T23:16:20;6.37;;;2.57;;
21901;SDS011;11115;46.038;14.612;2022-09-17T23:24:01;5.23;;;2.57;;
21901;SDS011;11115;46.038;14.612;2022-09-17T23:27:49;6.83;;;2.83;;
21901;SDS011;11115;46.038;14.612;2022-09-17T23:31:37;6.10;;;3.83;;
21901;SDS011;11115;46.038;14.612;2022-09-17T23:35:26;11.73;;;3.00;;
21901;SDS011;11115;46.038;14.612;2022-09-17T23:39:19;10.90;;;4.67;;
21901;SDS011;11115;46.038;14.612;2022-09-17T23:43:05;8.03;;;3.27;;
21901;SDS011;11115;46.038;14.612;2022-09-17T23:47:05;6.07;;;3.80;;
21901;SDS011;11115;46.038;14.612;2022-09-17T23:50:54;8.63;;;4.20;;
21901;SDS011;11115;46.038;14.612;2022-09-17T23:58:34;4.23;;;2.37;;
